Time;durP1;ratioP1;P1;durP2;ratioP2;P2;SDS_P1;SDS_P2;PMS_P1;PMS_P2;Temp;Humidity;BMP_temperature;BMP_pressure;BME280_temperature;BME280_humidity;BME280_pressure;Samples;Min_cycle;Max_cycle;Signal;HPM_P1;HPM_P2
2021/04/19 00:00:10;;;;;;;20.60;13.20;;;11.90;99.90;;;;;;5058408;28;20110;-80
2021/04/19 00:02:37;;;;;;;19.15;13.27;;;11.80;99.90;;;;;;5054377;28;20084;-78
2021/04/19 00:05:05;;;;;;;19.33;12.85;;;11.80;99.90;;;;;;5054346;28;20091;-78
2021/04/19 00:07:32;;;;;;;23.70;14.52;;;11.70;99.90;;;;;;5054552;28;20053;-79
2021/04/19 00:10:00;;;;;;;18.00;14.00;;;11.80;99.90;;;;;;5055425;28;20588;-78
2021/04/19 00:12:26;;;;;;;20.92;14.25;;;11.70;99.90;;;;;;5054723;28;20056;-78
2021/04/19 00:14:52;;;;;;;19.05;13.80;;;11.60;99.90;;;;;;5054065;28;20492;-78
2021/04/19 00:17:19;;;;;;;18.83;13.73;;;11.60;99.90;;;;;;5054825;28;20413;-78
2021/04/19 00:19:45;;;;;;;16.88;13.38;;;11.50;99.90;;;;;;5055366;28;20048;-77
2021/04/19 00:22:11;;;;;;;23.73;14.30;;;11.40;99.90;;;;;;5055572;28;20045;-78
2021/04/19 00:24:38;;;;;;;21.88;14.75;;;11.40;99.90;;;;;;5055730;28;20140;-77
2021/04/19 00:27:06;;;;;;;25.15;15.70;;;11.30;99.90;;;;;;5055550;28;20071;-78
2021/04/19 00:29:32;;;;;;;23.63;14.52;;;11.30;99.90;;;;;;5057099;28;20497;-78
2021/04/19 00:31:59;;;;;;;24.85;14.65;;;11.20;99.90;;;;;;5056031;28;20136;-77
2021/04/19 00:34:25;;;;;;;18.33;14.43;;;11.10;99.90;;;;;;5057531;28;20112;-78
2021/04/19 00:36:52;;;;;;;21.73;14.73;;;11.10;99.90;;;;;;5058808;28;20131;-78
2021/04/19 00:39:18;;;;;;;20.52;13.93;;;11.10;99.90;;;;;;5054343;28;20104;-78
2021/04/19 00:41:45;;;;;;;17.85;14.23;;;11.00;99.90;;;;;;5053930;28;20128;-77
2021/04/19 00:44:13;;;;;;;22.00;14.05;;;10.90;99.90;;;;;;5054529;28;20113;-77
2021/04/19 00:46:40;;;;;;;21.52;15.07;;;10.90;99.90;;;;;;5053752;28;20089;-77
2021/04/19 00:49:06;;;;;;;21.10;14.60;;;10.90;99.90;;;;;;5054319;28;20131;-78
2021/04/19 00:51:33;;;;;;;22.20;14.40;;;10.90;99.90;;;;;;5055053;28;20132;-77
2021/04/19 00:53:59;;;;;;;19.92;13.68;;;10.80;99.90;;;;;;5055634;28;20072;-77
2021/04/19 00:56:26;;;;;;;22.70;14.43;;;10.80;99.90;;;;;;5055167;28;20136;-77
2021/04/19 00:58:52;;;;;;;18.88;13.60;;;10.70;99.90;;;;;;5055487;28;20142;-77
2021/04/19 01:01:19;;;;;;;20.25;13.30;;;10.70;99.90;;;;;;5055987;28;20378;-77
2021/04/19 01:03:46;;;;;;;19.08;13.73;;;10.70;99.90;;;;;;5068556;28;20075;-78
2021/04/19 01:06:13;;;;;;;16.75;12.85;;;10.70;99.90;;;;;;5075495;28;20037;-77
2021/04/19 01:08:40;;;;;;;19.48;13.40;;;10.70;99.90;;;;;;5076535;28;20063;-79
2021/04/19 01:11:06;;;;;;;19.85;12.98;;;10.60;99.90;;;;;;5077178;28;20052;-80
2021/04/19 01:13:33;;;;;;;17.58;13.00;;;10.70;99.90;;;;;;5076767;28;20102;-79
2021/04/19 01:15:59;;;;;;;17.85;12.98;;;10.60;99.90;;;;;;5063482;28;20080;-79
2021/04/19 01:18:26;;;;;;;20.17;13.20;;;10.60;99.90;;;;;;5057017;28;20175;-79
2021/04/19 01:20:53;;;;;;;17.58;14.18;;;10.50;99.90;;;;;;5056155;28;20141;-79
2021/04/19 01:23:20;;;;;;;20.52;13.05;;;10.50;99.90;;;;;;5056070;28;20109;-77
2021/04/19 01:25:47;;;;;;;21.88;13.10;;;10.50;99.90;;;;;;5055246;28;20188;-79
2021/04/19 01:28:16;;;;;;;17.00;12.35;;;10.50;99.90;;;;;;5056392;28;20075;-79
2021/04/19 01:30:44;;;;;;;17.05;13.07;;;10.50;99.90;;;;;;5060350;28;20136;-79
2021/04/19 01:33:12;;;;;;;17.10;13.65;;;10.50;99.90;;;;;;5057853;28;20083;-80
2021/04/19 01:35:38;;;;;;;20.88;13.23;;;10.50;99.90;;;;;;5056536;28;20103;-79
2021/04/19 01:38:07;;;;;;;20.25;12.38;;;10.40;99.90;;;;;;5052367;28;20056;-78
2021/04/19 01:40:34;;;;;;;18.83;12.73;;;10.40;99.90;;;;;;5053664;28;20136;-78
2021/04/19 01:43:01;;;;;;;20.05;12.82;;;10.40;99.90;;;;;;5054567;28;20079;-79
2021/04/19 01:45:27;;;;;;;15.43;11.98;;;10.40;99.90;;;;;;5055121;28;20073;-78
2021/04/19 01:47:55;;;;;;;18.33;12.35;;;10.30;99.90;;;;;;5055248;28;20128;-78
2021/04/19 01:50:24;;;;;;;16.92;12.18;;;10.40;99.90;;;;;;5053210;28;20048;-77
2021/04/19 01:52:50;;;;;;;17.83;11.63;;;10.40;99.90;;;;;;5057247;28;20582;-75
2021/04/19 01:55:20;;;;;;;18.67;12.35;;;10.30;99.90;;;;;;5059447;28;20071;-79
2021/04/19 01:57:50;;;;;;;19.23;12.80;;;10.30;99.90;;;;;;5065971;23;20084;-77
2021/04/19 02:00:20;;;;;;;18.95;12.00;;;10.30;99.90;;;;;;5028772;28;20486;-80
2021/04/19 02:02:56;;;;;;;17.77;11.93;;;10.20;99.90;;;;;;5038395;28;20462;-80
2021/04/19 02:05:30;;;;;;;15.88;12.15;;;10.20;99.90;;;;;;5040199;28;20081;-78
2021/04/19 02:08:04;;;;;;;20.05;13.02;;;10.20;99.90;;;;;;5032433;28;20109;-79
2021/04/19 02:10:40;;;;;;;18.77;12.45;;;10.30;99.90;;;;;;5023974;28;20069;-79
2021/04/19 02:13:14;;;;;;;18.35;12.57;;;10.30;99.90;;;;;;5030295;28;20057;-79
2021/04/19 02:15:49;;;;;;;17.90;12.25;;;10.30;99.90;;;;;;5031245;28;20054;-79
2021/04/19 02:18:24;;;;;;;19.52;12.88;;;10.30;99.90;;;;;;5025415;28;20057;-79
2021/04/19 02:20:58;;;;;;;18.33;13.00;;;10.30;99.90;;;;;;5023031;28;20118;-78
2021/04/19 02:23:27;;;;;;;17.83;11.93;;;10.20;99.90;;;;;;5015162;28;20079;-78
2021/04/19 02:25:59;;;;;;;16.92;11.98;;;10.20;99.90;;;;;;5017246;28;20132;-78
2021/04/19 02:28:29;;;;;;;22.00;12.32;;;10.20;99.90;;;;;;5015791;28;20073;-78
2021/04/19 02:31:00;;;;;;;22.77;14.32;;;10.20;99.90;;;;;;5015846;28;20141;-78
2021/04/19 02:33:32;;;;;;;20.88;13.20;;;10.20;99.90;;;;;;5012818;28;20041;-76
2021/04/19 02:35:59;;;;;;;24.77;13.75;;;10.10;99.90;;;;;;5014159;28;20092;-78
2021/04/19 02:38:29;;;;;;;20.63;14.13;;;10.20;99.90;;;;;;5013114;28;20565;-77
2021/04/19 02:41:00;;;;;;;19.73;13.50;;;10.20;99.90;;;;;;5015804;28;20584;-77
2021/04/19 02:43:27;;;;;;;19.77;13.15;;;10.30;99.90;;;;;;5016262;28;20133;-77
2021/04/19 02:45:54;;;;;;;20.88;12.60;;;10.20;99.90;;;;;;5016668;28;20072;-78
2021/04/19 02:48:23;;;;;;;21.10;13.55;;;10.20;99.90;;;;;;5017415;28;20084;-78
2021/04/19 02:50:50;;;;;;;18.17;12.65;;;10.10;99.90;;;;;;5019508;28;20045;-78
2021/04/19 02:53:19;;;;;;;21.30;13.02;;;10.10;99.90;;;;;;5017369;28;20046;-78
2021/04/19 02:55:46;;;;;;;21.58;13.00;;;10.10;99.90;;;;;;5017145;28;20395;-78
2021/04/19 02:58:19;;;;;;;20.25;12.77;;;10.00;99.90;;;;;;5016132;28;20140;-78
2021/04/19 03:00:48;;;;;;;;;;;10.00;99.90;;;;;;5017652;28;20470;-78
2021/04/19 03:03:20;;;;;;;17.83;12.50;;;9.90;99.90;;;;;;5015963;28;20000;-77
2021/04/19 03:05:47;;;;;;;;;;;9.90;99.90;;;;;;5017807;28;20089;-77
2021/04/19 03:08:17;;;;;;;22.10;12.23;;;9.80;99.90;;;;;;5017865;28;19957;-78
2021/04/19 03:10:49;;;;;;;21.10;12.45;;;9.80;99.90;;;;;;5018391;28;20092;-78
2021/04/19 03:13:19;;;;;;;16.17;12.18;;;9.80;99.90;;;;;;5017891;28;20129;-77
2021/04/19 03:15:49;;;;;;;18.60;12.57;;;9.70;99.90;;;;;;5017794;28;20054;-79
2021/04/19 03:18:18;;;;;;;21.02;13.27;;;9.80;99.90;;;;;;5018601;28;20129;-78
2021/04/19 03:20:50;;;;;;;23.65;12.88;;;9.80;99.90;;;;;;5017908;28;20056;-78
2021/04/19 03:23:17;;;;;;;15.90;12.00;;;9.80;99.90;;;;;;5017052;28;20129;-78
2021/04/19 03:25:45;;;;;;;18.98;12.13;;;9.70;99.90;;;;;;5017491;28;20077;-78
2021/04/19 03:28:15;;;;;;;19.20;12.15;;;9.70;99.90;;;;;;5017442;28;20092;-78
2021/04/19 03:30:42;;;;;;;22.40;11.77;;;9.70;99.90;;;;;;5018128;28;20153;-78
2021/04/19 03:33:10;;;;;;;20.20;12.50;;;9.70;99.90;;;;;;5018102;28;20046;-78
2021/04/19 03:35:39;;;;;;;20.13;12.40;;;9.70;99.90;;;;;;5017842;28;20553;-79
2021/04/19 03:38:07;;;;;;;19.75;12.75;;;9.70;99.90;;;;;;5017785;28;20529;-78
2021/04/19 03:40:34;;;;;;;21.45;13.57;;;9.70;99.90;;;;;;5018568;28;20549;-78
2021/04/19 03:43:04;;;;;;;22.20;12.73;;;9.60;99.90;;;;;;5018605;28;20054;-79
2021/04/19 03:45:33;;;;;;;19.75;11.90;;;9.60;99.90;;;;;;5017600;28;20054;-78
2021/04/19 03:48:03;;;;;;;19.20;12.57;;;9.60;99.90;;;;;;5017289;28;20064;-78
2021/04/19 03:50:32;;;;;;;17.90;12.38;;;9.60;99.90;;;;;;5017903;28;20054;-78
2021/04/19 03:53:00;;;;;;;26.35;13.45;;;9.60;99.90;;;;;;5017863;28;20045;-78
2021/04/19 03:55:28;;;;;;;17.60;12.48;;;9.60;99.90;;;;;;5015616;28;20124;-78
2021/04/19 03:57:57;;;;;;;19.67;12.73;;;9.50;99.90;;;;;;5015304;28;20105;-78
2021/04/19 04:00:24;;;;;;;19.58;13.20;;;9.50;99.90;;;;;;5016299;28;20585;-79
2021/04/19 04:02:54;;;;;;;21.25;13.77;;;9.50;99.90;;;;;;5017963;28;20077;-78
2021/04/19 04:05:22;;;;;;;24.77;14.05;;;9.40;99.90;;;;;;5016725;28;20141;-79
2021/04/19 04:07:50;;;;;;;21.90;13.45;;;9.60;99.90;;;;;;5017197;28;20053;-79
2021/04/19 04:10:17;;;;;;;19.80;13.90;;;9.60;99.90;;;;;;5017754;28;20185;-79
2021/04/19 04:12:44;;;;;;;21.48;13.63;;;9.60;99.90;;;;;;5018738;28;20473;-79
2021/04/19 04:15:12;;;;;;;19.33;14.18;;;9.60;99.90;;;;;;5017099;28;20137;-78
2021/04/19 04:17:38;;;;;;;20.90;14.90;;;9.60;99.90;;;;;;5016464;28;20089;-78
2021/04/19 04:20:06;;;;;;;23.23;15.23;;;9.50;99.90;;;;;;5017154;28;20584;-78
2021/04/19 04:22:33;;;;;;;29.27;18.98;;;9.50;99.90;;;;;;5018093;28;20045;-78
2021/04/19 04:25:00;;;;;;;34.22;20.50;;;9.40;99.90;;;;;;5018928;28;20110;-79
2021/04/19 04:27:27;;;;;;;31.63;22.48;;;9.30;99.90;;;;;;5018883;28;20145;-79
2021/04/19 04:29:54;;;;;;;30.58;22.48;;;9.20;99.90;;;;;;5018763;28;20548;-79
2021/04/19 04:32:20;;;;;;;31.95;20.65;;;9.20;99.90;;;;;;5016845;28;20108;-79
2021/04/19 04:34:46;;;;;;;28.90;20.83;;;9.20;99.90;;;;;;5016656;28;20546;-78
2021/04/19 04:37:13;;;;;;;30.27;21.25;;;9.20;99.90;;;;;;5016102;28;20128;-78
2021/04/19 04:39:40;;;;;;;29.33;21.10;;;9.20;99.90;;;;;;5017707;28;20114;-79
2021/04/19 04:42:12;;;;;;;30.38;20.45;;;9.10;99.90;;;;;;5018691;28;20459;-78
2021/04/19 04:44:41;;;;;;;33.75;21.38;;;9.10;99.90;;;;;;5017971;28;20085;-80
2021/04/19 04:47:14;;;;;;;35.13;22.52;;;9.10;99.90;;;;;;5018320;28;20089;-80
2021/04/19 04:49:47;;;;;;;31.83;21.95;;;9.10;99.90;;;;;;5019204;28;20078;-78
2021/04/19 04:52:14;;;;;;;32.13;24.05;;;9.20;99.90;;;;;;5018926;28;20081;-80
2021/04/19 04:54:45;;;;;;;31.77;22.25;;;9.20;99.90;;;;;;5016696;28;20077;-79
2021/04/19 04:57:15;;;;;;;29.80;22.67;;;9.20;99.90;;;;;;5016001;28;20096;-79
2021/04/19 04:59:43;;;;;;;33.03;23.75;;;9.20;99.90;;;;;;5015791;28;20054;-78
2021/04/19 05:02:12;;;;;;;40.10;25.02;;;9.10;99.90;;;;;;5015497;28;20133;-79
2021/04/19 05:04:39;;;;;;;35.05;23.05;;;9.20;99.90;;;;;;5018652;28;20085;-79
2021/04/19 05:07:07;;;;;;;34.90;24.77;;;9.20;99.90;;;;;;5017743;28;20119;-79
2021/04/19 05:09:34;;;;;;;36.65;24.42;;;9.20;99.90;;;;;;5016083;28;20140;-78
2021/04/19 05:12:01;;;;;;;38.70;25.20;;;9.30;99.90;;;;;;5016173;28;20146;-79
2021/04/19 05:14:27;;;;;;;37.63;26.08;;;9.20;99.90;;;;;;5016802;28;20061;-79
2021/04/19 05:16:54;;;;;;;40.33;25.85;;;9.20;99.90;;;;;;5022290;28;20132;-78
2021/04/19 05:19:20;;;;;;;42.17;26.63;;;9.10;99.90;;;;;;5019933;28;20112;-79
2021/04/19 05:21:46;;;;;;;42.05;26.52;;;9.10;99.90;;;;;;5021276;28;20132;-79
2021/04/19 05:24:13;;;;;;;44.33;27.88;;;9.10;99.90;;;;;;5025030;28;20105;-78
2021/04/19 05:26:39;;;;;;;40.03;28.23;;;9.10;99.90;;;;;;5019940;28;20050;-78
2021/04/19 05:29:06;;;;;;;45.78;28.15;;;9.10;99.90;;;;;;5015776;28;20146;-78
2021/04/19 05:31:33;;;;;;;38.42;26.95;;;9.10;99.90;;;;;;5019139;28;20136;-80
2021/04/19 05:33:59;;;;;;;40.63;27.38;;;9.10;99.90;;;;;;5026877;28;20053;-79
2021/04/19 05:36:27;;;;;;;40.15;26.50;;;9.20;99.90;;;;;;5020671;28;20499;-79
2021/04/19 05:38:53;;;;;;;41.95;28.58;;;9.10;99.90;;;;;;5015591;28;20156;-77
2021/04/19 05:41:21;;;;;;;39.85;27.92;;;9.10;99.90;;;;;;5015696;28;20058;-79
2021/04/19 05:43:48;;;;;;;41.88;28.35;;;9.00;99.90;;;;;;5016530;28;20491;-79
2021/04/19 05:46:17;;;;;;;43.40;27.88;;;9.10;99.90;;;;;;5015884;28;20046;-79
2021/04/19 05:48:44;;;;;;;40.75;28.13;;;9.10;99.90;;;;;;5021337;28;20168;-80
2021/04/19 05:51:19;;;;;;;41.08;27.73;;;9.20;99.90;;;;;;5021504;28;20085;-82
2021/04/19 05:53:50;;;;;;;35.78;27.50;;;9.20;99.90;;;;;;5023379;28;20141;-81
2021/04/19 05:56:33;;;;;;;43.20;28.67;;;9.20;99.90;;;;;;5024460;28;20058;-81
2021/04/19 05:59:10;;;;;;;46.65;29.52;;;9.10;99.90;;;;;;5014260;28;20128;-79
2021/04/19 06:01:41;;;;;;;41.40;28.08;;;9.10;99.90;;;;;;5017657;28;20501;-80
2021/04/19 06:04:31;;;;;;;45.05;29.38;;;9.00;99.90;;;;;;5017869;28;20073;-78
2021/04/19 06:07:09;;;;;;;43.63;31.48;;;8.90;99.90;;;;;;5032817;28;20855;-78
2021/04/19 06:09:58;;;;;;;43.80;31.15;;;9.00;99.90;;;;;;5017119;28;20053;-78
2021/04/19 06:12:31;;;;;;;48.53;30.73;;;8.90;99.90;;;;;;5011597;28;20082;-78
2021/04/19 06:15:08;;;;;;;48.35;33.03;;;8.90;99.90;;;;;;5038149;28;20053;-79
2021/04/19 06:17:39;;;;;;;53.83;32.85;;;9.00;99.90;;;;;;5040117;28;20060;-79
2021/04/19 06:20:10;;;;;;;47.50;34.40;;;8.90;99.90;;;;;;5041487;28;20049;-79
2021/04/19 06:22:37;;;;;;;50.85;35.70;;;8.90;99.90;;;;;;5043896;28;20088;-79
2021/04/19 06:25:09;;;;;;;51.03;35.47;;;9.00;99.90;;;;;;5042424;28;20049;-78
2021/04/19 06:27:38;;;;;;;51.20;36.33;;;8.90;99.90;;;;;;5042812;28;20097;-79
2021/04/19 06:30:17;;;;;;;62.97;38.70;;;8.70;99.90;;;;;;5043056;28;20053;-78
2021/04/19 06:32:46;;;;;;;54.47;37.88;;;8.70;99.90;;;;;;5025785;28;20084;-78
2021/04/19 06:35:15;;;;;;;54.08;37.42;;;8.60;99.90;;;;;;5015107;28;20077;-79
2021/04/19 06:37:42;;;;;;;54.70;39.03;;;8.50;99.90;;;;;;5030457;28;20049;-79
2021/04/19 06:40:09;;;;;;;62.05;40.03;;;8.50;99.90;;;;;;5045418;28;20049;-79
2021/04/19 06:42:36;;;;;;;52.92;39.75;;;8.50;99.90;;;;;;5052939;28;20049;-79
2021/04/19 06:45:04;;;;;;;54.67;40.03;;;8.60;99.90;;;;;;5050693;28;20053;-78
2021/04/19 06:47:34;;;;;;;51.45;38.35;;;8.60;99.90;;;;;;5043581;28;20049;-79
2021/04/19 06:50:03;;;;;;;52.00;37.67;;;8.80;99.90;;;;;;5038837;28;20145;-79
2021/04/19 06:52:32;;;;;;;53.30;37.58;;;8.80;99.90;;;;;;5037986;28;20088;-79
2021/04/19 06:54:58;;;;;;;54.47;37.33;;;8.90;99.90;;;;;;5035579;28;20092;-79
2021/04/19 06:57:28;;;;;;;48.60;38.95;;;8.90;99.90;;;;;;5034025;28;20513;-76
2021/04/19 06:59:56;;;;;;;56.17;39.22;;;8.90;99.90;;;;;;5034656;28;20053;-78
2021/04/19 07:02:26;;;;;;;56.42;40.47;;;9.00;99.90;;;;;;5034774;28;20052;-77
2021/04/19 07:04:54;;;;;;;54.83;41.08;;;8.90;99.90;;;;;;5034637;28;20095;-78
2021/04/19 07:07:26;;;;;;;54.83;39.63;;;9.00;99.90;;;;;;5034370;28;20129;-77
2021/04/19 07:09:56;;;;;;;58.42;38.55;;;9.00;99.90;;;;;;5034571;28;20555;-77
2021/04/19 07:12:24;;;;;;;52.25;40.80;;;9.10;99.90;;;;;;5034731;28;20136;-76
2021/04/19 07:14:54;;;;;;;58.58;40.47;;;9.00;99.90;;;;;;5034486;28;20592;-77
2021/04/19 07:17:20;;;;;;;54.28;39.50;;;9.00;99.90;;;;;;5033866;28;20054;-78
2021/04/19 07:19:47;;;;;;;54.45;40.15;;;9.00;99.90;;;;;;5031611;28;20085;-78
2021/04/19 07:22:15;;;;;;;50.45;37.85;;;9.10;99.90;;;;;;5029035;28;20088;-77
2021/04/19 07:24:43;;;;;;;54.67;39.95;;;9.00;99.90;;;;;;5031841;28;20049;-78
2021/04/19 07:27:11;;;;;;;58.67;42.33;;;9.00;99.90;;;;;;5028091;28;20073;-77
2021/04/19 07:29:39;;;;;;;56.95;40.92;;;8.90;99.90;;;;;;5011689;28;20054;-77
2021/04/19 07:32:06;;;;;;;54.30;41.15;;;8.80;99.90;;;;;;5013981;28;20062;-77
2021/04/19 07:34:33;;;;;;;53.33;38.55;;;8.90;99.90;;;;;;5013281;28;20057;-78
2021/04/19 07:37:01;;;;;;;55.08;40.00;;;8.80;99.90;;;;;;5013253;28;20084;-77
2021/04/19 07:39:30;;;;;;;49.88;38.33;;;8.80;99.90;;;;;;5013756;28;20073;-79
2021/04/19 07:41:58;;;;;;;58.08;41.58;;;8.70;99.90;;;;;;5014269;28;20084;-79
2021/04/19 07:44:49;;;;;;;57.33;43.05;;;8.50;99.90;;;;;;5015114;28;20092;-80
2021/04/19 07:47:31;;;;;;;62.10;43.17;;;8.30;99.90;;;;;;4998849;28;20053;-78
2021/04/19 07:50:05;;;;;;;60.72;43.30;;;8.30;99.90;;;;;;5014307;28;20075;-78
2021/04/19 07:52:35;;;;;;;72.32;48.92;;;8.40;99.90;;;;;;5015352;28;20417;-78
2021/04/19 07:55:10;;;;;;;66.07;49.92;;;8.40;99.90;;;;;;5019347;28;20104;-77
2021/04/19 07:57:38;;;;;;;65.00;47.97;;;8.40;99.90;;;;;;5018923;28;20132;-79
2021/04/19 08:00:06;;;;;;;67.40;48.85;;;8.40;99.90;;;;;;5015622;28;20085;-79
2021/04/19 08:02:32;;;;;;;66.00;46.10;;;8.50;99.90;;;;;;5012651;28;20083;-78
2021/04/19 08:05:04;;;;;;;60.95;43.35;;;8.60;99.90;;;;;;5013020;28;20053;-78
2021/04/19 08:07:31;;;;;;;56.90;42.15;;;8.70;99.90;;;;;;5015935;28;20066;-77
2021/04/19 08:09:59;;;;;;;56.20;39.08;;;8.80;99.90;;;;;;5015095;28;20569;-78
2021/04/19 08:12:37;;;;;;;50.70;38.25;;;8.80;99.90;;;;;;5014310;28;20142;-78
2021/04/19 08:15:07;;;;;;;49.58;37.88;;;8.90;99.90;;;;;;5013764;28;20057;-78
2021/04/19 08:17:33;;;;;;;48.33;37.50;;;8.90;99.90;;;;;;5012784;28;20050;-76
2021/04/19 08:20:04;;;;;;;52.80;38.58;;;8.80;99.90;;;;;;5012605;28;20077;-77
2021/04/19 08:22:31;;;;;;;49.72;36.10;;;8.80;99.90;;;;;;5011803;28;20042;-77
2021/04/19 08:25:13;;;;;;;51.08;34.60;;;8.90;99.90;;;;;;5012621;28;20146;-77
2021/04/19 08:27:41;;;;;;;51.22;34.80;;;9.00;99.90;;;;;;5012396;28;20098;-77
2021/04/19 08:30:10;;;;;;;46.35;35.72;;;9.00;99.90;;;;;;5008084;28;20048;-77
2021/04/19 08:32:37;;;;;;;44.78;34.95;;;9.10;99.90;;;;;;5011064;28;20049;-78
2021/04/19 08:35:05;;;;;;;49.90;35.47;;;9.20;99.90;;;;;;5011904;28;20056;-78
2021/04/19 08:37:32;;;;;;;47.92;35.72;;;9.20;99.90;;;;;;5010268;28;20136;-77
2021/04/19 08:40:01;;;;;;;47.88;34.50;;;9.20;99.90;;;;;;5010610;28;20148;-77
2021/04/19 08:42:28;;;;;;;44.58;32.72;;;9.30;99.90;;;;;;5009548;28;20278;-77
2021/04/19 08:44:58;;;;;;;45.38;34.03;;;9.50;99.90;;;;;;5010767;28;20520;-76
2021/04/19 08:47:27;;;;;;;39.72;31.58;;;9.60;99.90;;;;;;5011102;28;20136;-78
2021/04/19 08:49:55;;;;;;;42.90;34.47;;;9.70;99.90;;;;;;5011210;28;20611;-78
2021/04/19 08:52:22;;;;;;;42.55;31.67;;;9.60;99.90;;;;;;5010088;28;20053;-76
2021/04/19 08:54:48;;;;;;;42.80;32.75;;;9.70;99.90;;;;;;5010485;28;20086;-78
2021/04/19 08:57:15;;;;;;;47.50;34.72;;;9.60;99.90;;;;;;5010808;28;20111;-76
2021/04/19 08:59:43;;;;;;;43.30;33.28;;;9.60;99.90;;;;;;5010661;28;20137;-77
2021/04/19 09:02:13;;;;;;;42.88;33.92;;;9.70;99.90;;;;;;5009227;28;20516;-77
2021/04/19 09:04:39;;;;;;;50.38;35.58;;;9.70;99.90;;;;;;5008967;28;20054;-77
2021/04/19 09:07:06;;;;;;;49.30;36.22;;;9.80;99.90;;;;;;5013030;28;20149;-77
2021/04/19 09:09:38;;;;;;;45.33;36.08;;;9.80;99.90;;;;;;5016634;28;20132;-77
2021/04/19 09:12:26;;;;;;;49.90;35.78;;;9.90;99.90;;;;;;5011200;28;20545;-77
2021/04/19 09:15:19;;;;;;;52.42;36.47;;;9.90;99.90;;;;;;5010182;28;20089;-78
2021/04/19 09:18:00;;;;;;;;;;;10.10;99.90;;;;;;5010636;28;20537;-78
2021/04/19 09:20:35;;;;;;;45.35;36.38;;;10.20;99.90;;;;;;5010341;28;20035;-76
2021/04/19 09:23:18;;;;;;;45.30;34.13;;;10.40;99.90;;;;;;5009941;28;20073;-79
2021/04/19 09:25:45;;;;;;;42.10;33.08;;;10.50;99.90;;;;;;5011638;28;20133;-78
2021/04/19 09:28:14;;;;;;;43.08;35.33;;;10.60;99.90;;;;;;5043869;23;20051;-80
2021/04/19 09:30:47;;;;;;;45.70;36.95;;;10.60;99.90;;;;;;5066364;28;20110;-79
2021/04/19 09:33:24;;;;;;;;;;;10.70;99.90;;;;;;5058130;28;20121;-79
2021/04/19 09:35:53;;;;;;;43.45;33.67;;;10.70;99.90;;;;;;5056445;28;20396;-78
2021/04/19 09:38:49;;;;;;;39.53;33.75;;;10.80;99.90;;;;;;5052628;28;20045;-77
2021/04/19 09:41:17;;;;;;;44.70;33.35;;;10.90;99.90;;;;;;5049591;28;20399;-79
2021/04/19 09:43:45;;;;;;;44.30;32.85;;;10.80;99.90;;;;;;5049079;28;20045;-79
2021/04/19 09:46:25;;;;;;;41.70;33.70;;;10.90;99.90;;;;;;5051388;28;20064;-79
2021/04/19 09:49:06;;;;;;;41.60;33.75;;;11.10;99.90;;;;;;5054699;28;20126;-77
2021/04/19 09:51:37;;;;;;;44.63;31.92;;;11.20;99.90;;;;;;5053367;28;20052;-78
2021/04/19 09:54:10;;;;;;;44.90;33.50;;;11.40;99.90;;;;;;5053296;28;20099;-78
2021/04/19 09:56:39;;;;;;;40.63;32.75;;;11.50;99.90;;;;;;5053696;28;20056;-78
2021/04/19 09:59:07;;;;;;;41.85;33.00;;;11.70;99.90;;;;;;5054684;28;20053;-78
2021/04/19 10:01:35;;;;;;;41.60;32.72;;;11.90;99.90;;;;;;5054144;28;20045;-78
2021/04/19 10:04:04;;;;;;;39.55;31.60;;;12.10;99.90;;;;;;5054390;28;20083;-78
2021/04/19 10:06:43;;;;;;;45.92;35.55;;;12.00;99.90;;;;;;5053521;28;20455;-75
2021/04/19 10:09:11;;;;;;;43.60;37.40;;;11.80;99.90;;;;;;5054773;28;20135;-76
2021/04/19 10:11:42;;;;;;;43.00;33.55;;;11.80;99.90;;;;;;5054099;28;20128;-77
2021/04/19 10:14:10;;;;;;;42.20;32.95;;;11.70;99.90;;;;;;5055945;28;20066;-78
2021/04/19 10:16:44;;;;;;;49.22;34.17;;;11.60;99.90;;;;;;5055661;28;20062;-79
2021/04/19 10:19:12;;;;;;;43.08;34.30;;;11.60;99.90;;;;;;5054592;28;20535;-77
2021/04/19 10:21:39;;;;;;;46.85;35.53;;;11.60;99.90;;;;;;5052648;28;20056;-76
2021/04/19 10:24:14;;;;;;;43.85;33.70;;;11.70;99.90;;;;;;5054009;28;20480;-77
2021/04/19 10:26:41;;;;;;;44.65;34.80;;;11.70;99.90;;;;;;5054872;28;20053;-77
2021/04/19 10:29:12;;;;;;;43.03;35.35;;;11.60;99.90;;;;;;5055020;28;20276;-78
2021/04/19 10:31:47;;;;;;;42.97;35.80;;;11.80;99.90;;;;;;5055760;28;20576;-78
2021/04/19 10:34:14;;;;;;;48.95;37.17;;;12.00;99.90;;;;;;5057545;28;20045;-77
2021/04/19 10:36:46;;;;;;;49.53;39.17;;;12.20;99.90;;;;;;5058416;28;20069;-76
2021/04/19 10:39:15;;;;;;;47.35;37.83;;;12.20;99.90;;;;;;5058222;28;20091;-77
2021/04/19 10:41:42;;;;;;;50.10;39.13;;;12.20;99.90;;;;;;5055589;28;20077;-77
2021/04/19 10:44:10;;;;;;;56.00;44.50;;;12.40;99.90;;;;;;5057815;28;20112;-76
2021/04/19 10:46:39;;;;;;;58.70;46.33;;;12.50;99.90;;;;;;5059666;28;20081;-78
2021/04/19 10:49:19;;;;;;;52.75;45.70;;;12.40;99.90;;;;;;5060022;28;20052;-76
2021/04/19 10:51:51;;;;;;;55.45;43.35;;;12.30;99.90;;;;;;5059101;28;20131;-76
2021/04/19 10:54:18;;;;;;;54.00;42.88;;;12.40;99.90;;;;;;5056970;28;20151;-77
2021/04/19 10:56:47;;;;;;;50.03;42.40;;;12.50;99.90;;;;;;5057819;28;20049;-77
2021/04/19 10:59:14;;;;;;;53.10;43.58;;;12.60;99.90;;;;;;5058038;28;20449;-77
2021/04/19 11:01:43;;;;;;;49.63;40.70;;;12.70;99.90;;;;;;5058512;28;20163;-75
2021/04/19 11:04:11;;;;;;;52.90;41.83;;;12.70;99.90;;;;;;5058556;28;20059;-76
2021/04/19 11:06:38;;;;;;;50.17;41.20;;;12.70;99.90;;;;;;5056287;28;20056;-77
2021/04/19 11:09:15;;;;;;;48.72;39.35;;;12.70;99.90;;;;;;5056758;28;20482;-76
2021/04/19 11:11:43;;;;;;;43.50;37.58;;;12.80;99.90;;;;;;5054296;28;20060;-76
2021/04/19 11:14:18;;;;;;;42.22;33.17;;;12.70;99.90;;;;;;5055518;28;20160;-76
2021/04/19 11:16:53;;;;;;;38.20;32.88;;;12.80;99.90;;;;;;5054636;28;20045;-77
2021/04/19 11:19:43;;;;;;;44.13;38.15;;;12.80;99.90;;;;;;5059990;28;20540;-79
2021/04/19 11:22:24;;;;;;;45.78;37.47;;;13.00;99.90;;;;;;5058067;28;20048;-79
2021/04/19 11:24:52;;;;;;;54.40;41.90;;;13.10;99.90;;;;;;5059816;28;20080;-78
2021/04/19 11:27:27;;;;;;;44.58;36.92;;;13.30;99.90;;;;;;5062006;28;20095;-76
2021/04/19 11:29:54;;;;;;;44.60;37.55;;;13.30;99.90;;;;;;5060132;28;20132;-76
2021/04/19 11:32:32;;;;;;;41.35;35.17;;;13.50;99.90;;;;;;5058923;28;20080;-78
2021/04/19 11:34:59;;;;;;;40.10;33.75;;;13.60;99.90;;;;;;5061000;28;20074;-78
2021/04/19 11:37:34;;;;;;;39.35;32.95;;;13.70;99.90;;;;;;5057663;28;20060;-79
2021/04/19 11:40:02;;;;;;;39.83;32.92;;;13.60;99.90;;;;;;5054213;28;20140;-79
2021/04/19 11:42:33;;;;;;;36.88;32.00;;;13.60;99.90;;;;;;5054777;28;20091;-78
2021/04/19 11:45:02;;;;;;;38.58;32.60;;;13.40;99.90;;;;;;5054490;28;20078;-78
2021/04/19 11:47:28;;;;;;;36.20;31.30;;;13.40;99.90;;;;;;5055403;28;20045;-77
2021/04/19 11:49:57;;;;;;;39.47;32.65;;;13.50;99.90;;;;;;5055848;28;20084;-77
2021/04/19 11:52:27;;;;;;;36.15;31.70;;;13.50;99.90;;;;;;5054783;28;20568;-77
2021/04/19 11:54:53;;;;;;;38.38;32.42;;;13.60;99.90;;;;;;5054768;28;20052;-78
2021/04/19 11:57:21;;;;;;;38.63;30.45;;;13.60;99.90;;;;;;5054172;28;20072;-78
2021/04/19 11:59:47;;;;;;;35.63;30.27;;;13.60;99.90;;;;;;5054935;28;20079;-80
2021/04/19 12:02:14;;;;;;;35.28;30.33;;;13.70;99.90;;;;;;5055745;28;20087;-78
2021/04/19 12:04:40;;;;;;;34.00;30.30;;;13.80;99.90;;;;;;5058492;28;20069;-81
2021/04/19 12:07:07;;;;;;;37.28;30.23;;;13.90;99.90;;;;;;5060180;28;20118;-81
2021/04/19 12:09:34;;;;;;;34.78;31.00;;;14.20;99.90;;;;;;5058891;28;20084;-82
2021/04/19 12:12:00;;;;;;;35.10;29.90;;;14.30;99.90;;;;;;5059556;28;20073;-82
2021/04/19 12:14:28;;;;;;;32.75;28.33;;;14.50;99.90;;;;;;5062237;28;20423;-82
2021/04/19 12:16:55;;;;;;;35.05;28.75;;;14.70;99.90;;;;;;5060403;28;20124;-81
2021/04/19 12:19:22;;;;;;;33.63;28.67;;;15.00;99.90;;;;;;5061548;28;20049;-82
2021/04/19 12:21:48;;;;;;;31.88;27.15;;;15.10;99.90;;;;;;5060645;28;20111;-81
2021/04/19 12:24:15;;;;;;;32.08;28.08;;;15.20;99.90;;;;;;5061366;28;20068;-81
2021/04/19 12:26:41;;;;;;;35.70;27.80;;;15.30;99.90;;;;;;5061105;28;20132;-82
2021/04/19 12:29:08;;;;;;;37.58;28.88;;;15.20;99.90;;;;;;5060137;28;20091;-81
2021/04/19 12:31:36;;;;;;;31.73;27.27;;;15.10;99.90;;;;;;5057764;28;20126;-81
2021/04/19 12:34:02;;;;;;;33.03;27.73;;;15.00;99.90;;;;;;5060218;28;20072;-83
2021/04/19 12:36:31;;;;;;;30.33;26.27;;;15.00;99.90;;;;;;5064628;28;20108;-83
2021/04/19 12:38:57;;;;;;;30.42;26.98;;;15.00;99.90;;;;;;5062599;28;20620;-83
2021/04/19 12:41:25;;;;;;;30.55;27.25;;;15.00;99.90;;;;;;5060866;28;20104;-81
2021/04/19 12:43:51;;;;;;;30.90;27.33;;;14.90;99.90;;;;;;5060549;28;20236;-82